Portada
METAR-TAF:

METAR-TAF

Aeropuertos :

Aeropuerto de Asturias

Avilés, España

latitud: 43-33N, longitud: 006-02W, altitud: 127 m

Observación

El informe se hizo hace 28 minutos, a las 22:30 UTC
Viento 3 kt del oeste
Temperatura 16°C
Humedad 77%
Presión 1017 hPa
Visibilidad 10 km o más
Cielo nuboso a una altura de 4800 ft
Cielo cubierto a una altura de 5600 ft

METAR: LEAS 062230Z AUTO 28003KT 9999 BKN048 OVC056 16/12 Q1017

Hora: 00:58 (22:58 UTC)

Pronóstico

El informe se hizo hace 2 horas y 58 minutos, a las 20:00 UTC
Pronóstico válido del 06 a las 21 UTC al 07 a las 21 UTC
Viento 7 kt del oeste
Visibilidad 10 km o más
Escasas nubes a una altura de 5000 ft
Temporalmente
del 07 a las 08 UTC al 07 a las 13 UTC
Viento 10 kt del norte-noroeste

TAF: LEAS 062000Z 0621/0721 27007KT 9999 FEW050 TX18/0712Z TN12/0702Z TEMPO 0708/0713 33010KT

Observaciones y pronósticos meteorológicos de más de 4000 aeropuertos (mensajes METAR y TAF).

Los puntos amarillos y rojos representan las estaciones disponibles.

Ponga el ratón en el punto deseado para ver el nombre de la estación.

Haga clic para ver las observaciones y los pronósticos meteorológicos.

Para cambiar el mapa : haga clic en los botones verdes con una cruz de color negro para hacer un zoom, en el botón verde con un guión para alejar o en las flechas verdes para mapas adyacentes.


METAR-TAF: